Hauptseite
METAR-TAF:

METAR-TAF

Flughäfen :

Fliegerhorst Neuburg

Neuburg, Deutschland

Breite: 48-43N, Länge: 011-13E, Höhe: 380 m

Beobachtung

Neuester Wetterbericht von vor 1 Stunde und 13 Minuten, um 01:20 UTC
Wind 5 kt aus West/Südwest
Temperatur 16°C
Luftfeuchtigkeit 82%
Luftdruck 1017 hPa
Sichtweite 10 km oder mehr
Aufgelockert bewölkt in der Höhe von 11000 ft

METAR: ETSN 180120Z 25005KT 9999 SCT110 16/13 Q1017 BLU+

Zeit: 04:33 (02:33 UTC)

Prognose

Neuester Wetterbericht von vor 1 Stunde und 33 Minuten, um 01:00 UTC
Gültige Prognose vom 18 um 02 UTC bis 18 um 11 UTC
Wind 6 kt aus West
Sichtweite 10 km oder mehr
Aufgelockert bewölkt in der Höhe von 12000 ft

TAF: ETSN 180100Z 1802/1811 26006KT 9999 NSW SCT120 BY ETGL

Wetterbeobachtungen und Prognosen von mehr als 4000 Flughäfen (METAR und TAF Bericht).

Die verfügbaren Stationen werden durch gelbe und rote Markierungen auf der Karte dargestellt.

Führen Sie die Maus auf sie, um den Namen der Station zu sehen.

Darauf klicken, um die Beobachtung von Wetterbeobachtungen und Prognosen zu sehen.

Um die Karte zu ändern : klicken Sie auf den grünen Tasten mit einem schwarzen Kreuz Zum Vergrößern, auf den grünen Button mit einem Gedankenstrich zu verkleinern, oder auf die grünen Pfeile für benachbarte Karten.


METAR-TAF: